createdAt,value
2019-02-17T00:01:40.674Z,9.50
2019-02-17T00:04:08.083Z,9.49
2019-02-17T00:06:35.353Z,9.36
2019-02-17T00:09:04.092Z,9.23
2019-02-17T00:11:31.317Z,9.20
2019-02-17T00:13:58.599Z,9.13
2019-02-17T00:16:25.814Z,9.06
2019-02-17T00:18:53.054Z,9.02
2019-02-17T00:21:20.377Z,9.00
2019-02-17T00:23:47.616Z,8.95
2019-02-17T00:26:14.828Z,8.95
2019-02-17T00:28:42.084Z,8.86
2019-02-17T00:31:09.346Z,8.86
2019-02-17T00:33:36.592Z,8.80
2019-02-17T00:36:03.826Z,8.77
2019-02-17T00:38:31.031Z,8.77
2019-02-17T00:40:58.278Z,8.79
2019-02-17T00:43:25.493Z,8.78
2019-02-17T00:45:52.784Z,8.73
2019-02-17T00:48:20.028Z,8.73
2019-02-17T00:50:47.259Z,8.64
2019-02-17T00:53:14.547Z,8.64
2019-02-17T00:55:41.756Z,8.58
2019-02-17T00:58:09.079Z,8.51
2019-02-17T01:00:36.383Z,8.48
2019-02-17T01:03:04.016Z,8.48
2019-02-17T01:05:31.232Z,8.53
2019-02-17T01:07:58.516Z,8.43
2019-02-17T01:10:25.708Z,8.43
2019-02-17T01:12:52.915Z,8.37
2019-02-17T01:15:20.240Z,8.32
2019-02-17T01:17:47.447Z,8.31
2019-02-17T01:20:14.656Z,8.31
2019-02-17T01:22:41.977Z,8.30
2019-02-17T01:25:09.294Z,8.30
2019-02-17T01:27:36.540Z,8.28
2019-02-17T01:30:04.644Z,8.27
2019-02-17T01:32:31.872Z,8.27
2019-02-17T01:34:59.171Z,8.27
2019-02-17T01:37:26.386Z,8.26
2019-02-17T01:39:54.125Z,8.25
2019-02-17T01:42:21.395Z,8.20
2019-02-17T01:44:48.648Z,8.16
2019-02-17T01:47:15.916Z,8.16
2019-02-17T01:49:43.189Z,8.13
2019-02-17T01:52:10.451Z,8.10
2019-02-17T01:54:37.675Z,8.07
2019-02-17T01:57:04.914Z,8.02
2019-02-17T01:59:32.237Z,8.01
2019-02-17T02:01:59.474Z,8.02
2019-02-17T02:04:26.696Z,8.01
2019-02-17T02:06:53.941Z,7.99
2019-02-17T02:09:21.317Z,7.96
2019-02-17T02:11:48.556Z,7.97
2019-02-17T02:14:15.781Z,7.95
2019-02-17T02:16:43.012Z,7.95
2019-02-17T02:19:10.241Z,7.97
2019-02-17T02:21:37.506Z,7.95
2019-02-17T02:24:04.741Z,7.92
2019-02-17T02:26:31.955Z,7.94
2019-02-17T02:28:59.190Z,7.86
2019-02-17T02:31:26.463Z,7.88
2019-02-17T02:33:53.703Z,7.86
2019-02-17T02:36:20.923Z,7.87
2019-02-17T02:38:48.164Z,7.86
2019-02-17T02:41:15.387Z,7.85
2019-02-17T02:43:42.625Z,7.85
2019-02-17T02:46:09.905Z,7.84
2019-02-17T02:48:37.182Z,7.84
2019-02-17T02:51:04.395Z,7.80
2019-02-17T02:53:31.647Z,7.77
2019-02-17T02:55:58.874Z,7.73
2019-02-17T02:58:26.108Z,7.71
2019-02-17T03:00:53.375Z,7.68
2019-02-17T03:03:20.608Z,7.65
2019-02-17T03:06:16.180Z,7.64
2019-02-17T03:08:43.418Z,7.60
2019-02-17T03:11:10.672Z,7.57
2019-02-17T03:13:37.888Z,7.53
2019-02-17T03:16:05.209Z,7.52
2019-02-17T03:18:32.483Z,7.50
2019-02-17T03:20:59.686Z,7.49
2019-02-17T03:23:26.912Z,7.47
2019-02-17T03:25:54.187Z,7.43
2019-02-17T03:28:21.404Z,7.38
2019-02-17T03:30:48.645Z,7.37
2019-02-17T03:33:15.909Z,7.35
2019-02-17T03:35:43.125Z,7.35
2019-02-17T03:38:10.344Z,7.33
2019-02-17T03:40:37.799Z,7.32
2019-02-17T03:43:05.039Z,7.30
2019-02-17T03:45:32.293Z,7.27
2019-02-17T03:47:59.506Z,7.23
2019-02-17T03:50:26.728Z,7.20
2019-02-17T03:52:53.984Z,7.19
2019-02-17T03:55:21.225Z,7.15
2019-02-17T03:57:48.466Z,7.12
2019-02-17T04:00:17.263Z,7.08
2019-02-17T04:02:46.740Z,7.06
2019-02-17T04:05:14.121Z,7.03
2019-02-17T04:07:41.352Z,6.94
2019-02-17T04:10:08.582Z,6.90
2019-02-17T04:12:35.827Z,6.87
2019-02-17T04:15:03.088Z,6.86
2019-02-17T04:17:30.332Z,6.84
2019-02-17T04:19:57.568Z,6.81
2019-02-17T04:22:25.271Z,6.79
2019-02-17T04:24:52.801Z,6.75
2019-02-17T04:27:20.074Z,6.71
2019-02-17T04:29:47.286Z,6.71
2019-02-17T04:32:14.505Z,6.71
2019-02-17T04:34:42.153Z,6.73
2019-02-17T04:37:09.386Z,6.77
2019-02-17T04:39:36.599Z,6.79
2019-02-17T04:42:03.840Z,6.80
2019-02-17T04:44:31.053Z,6.78
2019-02-17T04:46:58.312Z,6.77
2019-02-17T04:49:25.537Z,6.76
2019-02-17T04:51:52.806Z,6.72
2019-02-17T04:54:20.082Z,6.69
2019-02-17T04:56:47.342Z,6.65
2019-02-17T04:59:14.565Z,6.65
2019-02-17T05:01:41.816Z,6.65
2019-02-17T05:04:09.036Z,6.65
2019-02-17T05:06:36.278Z,6.66
2019-02-17T05:09:05.149Z,6.68
2019-02-17T05:11:32.380Z,6.68
2019-02-17T05:13:59.588Z,6.68
2019-02-17T05:16:26.837Z,6.66
2019-02-17T05:18:54.118Z,6.67
2019-02-17T05:21:23.851Z,6.68
2019-02-17T05:23:51.061Z,6.71
2019-02-17T05:26:18.336Z,6.71
2019-02-17T05:28:45.573Z,6.70
2019-02-17T05:31:12.834Z,6.70
2019-02-17T05:33:40.074Z,6.70
2019-02-17T05:36:07.317Z,6.66
2019-02-17T05:38:34.539Z,6.58
2019-02-17T05:41:01.797Z,6.62
2019-02-17T05:43:29.022Z,6.60
2019-02-17T05:45:56.317Z,6.55
2019-02-17T05:48:23.902Z,6.54
2019-02-17T05:50:51.141Z,6.53
2019-02-17T05:53:18.402Z,6.46
2019-02-17T05:55:45.622Z,6.42
2019-02-17T05:58:12.876Z,6.39
2019-02-17T06:00:40.378Z,6.39
2019-02-17T06:03:07.606Z,6.38
2019-02-17T06:05:34.952Z,6.36
2019-02-17T06:08:02.182Z,6.33
2019-02-17T06:10:29.422Z,6.26
2019-02-17T06:12:56.651Z,6.22
2019-02-17T06:15:23.923Z,6.21
2019-02-17T06:17:51.155Z,6.21
2019-02-17T06:20:18.370Z,6.19
2019-02-17T06:22:45.673Z,6.14
2019-02-17T06:25:12.910Z,6.10
2019-02-17T06:27:40.316Z,6.06
2019-02-17T06:30:07.671Z,6.02
2019-02-17T06:32:34.888Z,5.99
2019-02-17T06:35:02.240Z,5.96
2019-02-17T06:37:29.465Z,5.92
2019-02-17T06:39:56.688Z,5.88
2019-02-17T06:42:23.962Z,5.88
2019-02-17T06:44:51.189Z,5.85
2019-02-17T06:47:22.650Z,5.82
2019-02-17T06:49:49.932Z,5.80
2019-02-17T06:52:17.155Z,5.75
2019-02-17T06:54:49.876Z,5.72
2019-02-17T06:57:23.921Z,5.69
2019-02-17T07:00:07.577Z,5.67
2019-02-17T07:02:34.865Z,5.64
2019-02-17T07:05:12.454Z,5.61
2019-02-17T07:07:40.497Z,5.55
2019-02-17T07:10:07.791Z,5.54
2019-02-17T07:12:35.015Z,5.55
2019-02-17T07:15:02.283Z,5.57
2019-02-17T07:17:29.504Z,5.59
2019-02-17T07:19:56.771Z,5.61
2019-02-17T07:22:23.995Z,5.64
2019-02-17T07:24:51.226Z,5.65
2019-02-17T07:27:18.497Z,5.68
2019-02-17T07:29:45.778Z,5.71
2019-02-17T07:32:12.999Z,5.71
2019-02-17T07:34:40.243Z,5.78
2019-02-17T07:37:07.515Z,5.82
2019-02-17T07:39:34.924Z,5.79
2019-02-17T07:42:02.206Z,5.76
2019-02-17T07:44:29.841Z,5.76
2019-02-17T07:46:57.061Z,5.82
2019-02-17T07:49:24.696Z,5.87
2019-02-17T07:51:51.909Z,5.85
2019-02-17T07:54:19.126Z,5.86
2019-02-17T07:56:48.424Z,5.92
2019-02-17T07:59:15.517Z,6.01
2019-02-17T08:01:45.318Z,6.14
2019-02-17T08:04:11.939Z,6.26
2019-02-17T08:06:39.190Z,6.38
2019-02-17T08:09:06.576Z,6.28
2019-02-17T08:11:33.827Z,6.33
2019-02-17T08:14:01.037Z,6.38
2019-02-17T08:16:28.329Z,6.31
2019-02-17T08:18:55.562Z,6.36
2019-02-17T08:21:22.864Z,6.32
2019-02-17T08:23:50.116Z,6.45
2019-02-17T08:26:17.690Z,6.57
2019-02-17T08:28:44.914Z,6.63
2019-02-17T08:31:12.189Z,6.76
2019-02-17T08:33:39.422Z,6.89
2019-02-17T08:36:06.657Z,6.90
2019-02-17T08:38:33.894Z,6.97
2019-02-17T08:41:01.128Z,6.95
2019-02-17T08:43:28.354Z,6.95
2019-02-17T08:45:55.966Z,7.05
2019-02-17T08:48:23.237Z,7.27
2019-02-17T08:50:50.530Z,7.36
2019-02-17T08:53:17.754Z,7.56
2019-02-17T08:55:44.976Z,7.72
2019-02-17T08:58:12.248Z,7.92
2019-02-17T09:00:39.511Z,8.04
2019-02-17T09:03:06.794Z,8.17
2019-02-17T09:05:43.588Z,8.34
2019-02-17T09:08:04.078Z,8.49
2019-02-17T09:10:31.422Z,8.56
2019-02-17T09:12:58.731Z,8.71
2019-02-17T09:15:26.311Z,8.83
2019-02-17T09:17:53.509Z,8.83
2019-02-17T09:20:20.817Z,8.95
2019-02-17T09:22:48.114Z,8.97
2019-02-17T09:25:15.344Z,9.10
2019-02-17T09:27:42.902Z,9.08
2019-02-17T09:30:12.557Z,9.19
2019-02-17T09:32:39.799Z,9.23
2019-02-17T09:35:07.099Z,9.31
2019-02-17T09:37:34.333Z,9.39
2019-02-17T09:40:01.567Z,9.38
2019-02-17T09:42:28.807Z,9.48
2019-02-17T09:44:56.029Z,9.50
2019-02-17T09:47:23.241Z,9.49
2019-02-17T09:49:50.501Z,9.61
2019-02-17T09:52:17.747Z,9.84
2019-02-17T09:54:45.026Z,9.91
2019-02-17T09:57:12.259Z,10.00
2019-02-17T09:59:39.503Z,10.12
2019-02-17T10:02:06.765Z,10.29
2019-02-17T10:04:33.987Z,10.29
2019-02-17T10:07:01.235Z,10.40
2019-02-17T10:09:28.545Z,10.40
2019-02-17T10:11:55.771Z,10.59
2019-02-17T10:14:23.023Z,10.43
2019-02-17T10:16:50.267Z,10.64
2019-02-17T10:19:17.528Z,10.69
2019-02-17T10:21:44.793Z,10.78
2019-02-17T10:24:12.027Z,10.81
2019-02-17T10:26:39.273Z,10.76
2019-02-17T10:29:06.502Z,10.75
2019-02-17T10:31:33.775Z,10.78
2019-02-17T10:34:00.994Z,10.73
2019-02-17T10:36:28.229Z,10.80
2019-02-17T10:38:55.473Z,10.99
2019-02-17T10:41:22.712Z,11.14
2019-02-17T10:43:49.967Z,11.21
2019-02-17T10:46:17.211Z,11.26
2019-02-17T10:48:56.461Z,11.40
2019-02-17T10:51:23.716Z,11.47
2019-02-17T10:53:51.040Z,11.52
2019-02-17T10:56:18.272Z,11.61
2019-02-17T10:58:45.571Z,11.64
2019-02-17T11:01:12.857Z,11.68
2019-02-17T11:03:48.632Z,11.61
2019-02-17T11:06:16.158Z,11.63
2019-02-17T11:08:43.382Z,11.69
2019-02-17T11:11:10.589Z,11.81
2019-02-17T11:13:38.087Z,11.86
2019-02-17T11:16:05.336Z,11.90
2019-02-17T11:18:32.884Z,11.98
2019-02-17T11:21:00.159Z,11.96
2019-02-17T11:23:27.521Z,12.07
2019-02-17T11:25:54.782Z,12.14
2019-02-17T11:28:22.027Z,12.15
2019-02-17T11:30:49.326Z,12.25
2019-02-17T11:33:16.546Z,12.25
2019-02-17T11:35:43.758Z,12.25
2019-02-17T11:38:11.023Z,12.39
2019-02-17T11:40:38.264Z,12.40
2019-02-17T11:43:05.539Z,12.51
2019-02-17T11:45:32.817Z,12.60
2019-02-17T11:48:00.122Z,12.65
2019-02-17T11:50:27.406Z,12.65
2019-02-17T11:52:54.642Z,12.61
2019-02-17T11:55:22.884Z,12.65
2019-02-17T11:57:50.278Z,12.73
2019-02-17T12:00:18.666Z,12.77
2019-02-17T12:02:45.976Z,12.76
2019-02-17T12:05:13.485Z,12.81
2019-02-17T12:07:40.948Z,12.95
2019-02-17T12:10:09.206Z,12.96
2019-02-17T12:12:36.499Z,12.91
2019-02-17T12:15:05.477Z,12.88
2019-02-17T12:17:32.682Z,12.97
2019-02-17T12:20:18.809Z,13.01
2019-02-17T12:22:50.063Z,13.03
2019-02-17T12:25:25.524Z,13.19
2019-02-17T12:28:00.683Z,13.16
2019-02-17T12:30:27.934Z,13.19
2019-02-17T12:32:55.193Z,13.18
2019-02-17T12:35:22.528Z,13.32
2019-02-17T12:37:49.761Z,13.28
2019-02-17T12:40:16.984Z,13.44
2019-02-17T12:42:44.279Z,13.50
2019-02-17T12:45:16.227Z,13.48
2019-02-17T12:47:42.564Z,13.47
2019-02-17T12:50:10.870Z,13.51
2019-02-17T12:52:46.788Z,13.33
2019-02-17T12:55:07.393Z,13.53
2019-02-17T12:57:34.605Z,13.54
2019-02-17T13:00:01.858Z,13.55
2019-02-17T13:02:29.127Z,13.51
2019-02-17T13:04:56.377Z,13.66
2019-02-17T13:07:23.665Z,13.69
2019-02-17T13:09:50.876Z,13.58
2019-02-17T13:12:18.127Z,13.51
2019-02-17T13:14:45.407Z,13.58
2019-02-17T13:17:12.621Z,13.74
2019-02-17T13:19:41.361Z,13.73
2019-02-17T13:22:08.774Z,13.79
2019-02-17T13:24:36.044Z,13.63
2019-02-17T13:27:03.344Z,13.72
2019-02-17T13:29:30.573Z,13.81
2019-02-17T13:31:57.783Z,13.89
2019-02-17T13:34:25.075Z,13.82
2019-02-17T13:36:52.294Z,13.89
2019-02-17T13:39:19.575Z,13.91
2019-02-17T13:41:47.045Z,14.02
2019-02-17T13:44:14.385Z,13.92
2019-02-17T13:46:41.614Z,14.05
2019-02-17T13:49:08.825Z,14.21
2019-02-17T13:51:36.079Z,14.27
2019-02-17T13:54:03.324Z,14.32
2019-02-17T13:56:30.648Z,14.36
2019-02-17T13:58:57.905Z,14.45
2019-02-17T14:01:25.204Z,14.47
2019-02-17T14:03:52.504Z,14.46
2019-02-17T14:06:19.711Z,14.47
2019-02-17T14:08:46.938Z,14.50
2019-02-17T14:11:14.206Z,14.51
2019-02-17T14:13:41.415Z,14.55
2019-02-17T14:16:08.684Z,14.59
2019-02-17T14:18:35.934Z,14.59
2019-02-17T14:21:03.224Z,14.59
2019-02-17T14:23:30.412Z,14.61
2019-02-17T14:25:57.674Z,14.62
2019-02-17T14:28:24.955Z,14.67
2019-02-17T14:30:52.203Z,14.67
2019-02-17T14:33:19.433Z,14.66
2019-02-17T14:35:46.687Z,14.61
2019-02-17T14:38:13.904Z,14.62
2019-02-17T14:40:41.165Z,14.59
2019-02-17T14:43:08.411Z,14.63
2019-02-17T14:45:35.683Z,14.62
2019-02-17T14:48:02.925Z,14.62
2019-02-17T14:50:30.151Z,14.57
2019-02-17T14:52:57.471Z,14.63
2019-02-17T14:55:24.698Z,14.64
2019-02-17T14:57:51.971Z,14.66
2019-02-17T15:00:19.243Z,14.65
2019-02-17T15:02:46.554Z,14.67
2019-02-17T15:05:13.903Z,14.65
2019-02-17T15:07:41.228Z,14.61
2019-02-17T15:10:08.939Z,14.66
2019-02-17T15:12:41.053Z,14.56
2019-02-17T15:15:08.826Z,14.59
2019-02-17T15:17:36.235Z,14.62
2019-02-17T15:20:03.930Z,14.60
2019-02-17T15:22:31.141Z,14.54
2019-02-17T15:24:58.403Z,14.54
2019-02-17T15:27:25.797Z,14.50
2019-02-17T15:29:53.117Z,14.49
2019-02-17T15:32:20.411Z,14.49
2019-02-17T15:34:47.700Z,14.48
2019-02-17T15:37:14.901Z,14.37
2019-02-17T15:39:42.202Z,14.42
2019-02-17T15:42:09.454Z,14.34
2019-02-17T15:44:36.700Z,14.33
2019-02-17T15:47:03.940Z,14.29
2019-02-17T15:49:31.180Z,14.27
2019-02-17T15:51:58.434Z,14.25
2019-02-17T15:54:25.723Z,14.21
2019-02-17T15:56:53.937Z,14.18
2019-02-17T15:59:23.325Z,14.12
2019-02-17T16:01:50.577Z,14.09
2019-02-17T16:04:17.814Z,14.06
2019-02-17T16:06:45.060Z,13.92
2019-02-17T16:09:12.280Z,13.91
2019-02-17T16:11:39.559Z,13.87
2019-02-17T16:14:06.773Z,13.83
2019-02-17T16:16:34.049Z,13.81
2019-02-17T16:19:01.278Z,13.78
2019-02-17T16:21:28.499Z,13.74
2019-02-17T16:23:55.752Z,13.69
2019-02-17T16:26:23.338Z,13.61
2019-02-17T16:28:50.587Z,13.51
2019-02-17T16:31:17.839Z,13.41
2019-02-17T16:33:45.081Z,13.30
2019-02-17T16:36:12.411Z,13.19
2019-02-17T16:38:39.644Z,13.06
2019-02-17T16:41:06.861Z,12.95
2019-02-17T16:43:34.120Z,12.85
2019-02-17T16:46:01.334Z,12.74
2019-02-17T16:48:28.574Z,12.63
2019-02-17T16:50:55.821Z,12.48
2019-02-17T16:53:23.079Z,12.32
2019-02-17T16:55:50.302Z,12.22
2019-02-17T16:58:17.529Z,12.12
2019-02-17T17:00:44.814Z,12.09
2019-02-17T17:03:12.140Z,11.89
2019-02-17T17:05:39.725Z,11.89
2019-02-17T17:08:07.398Z,11.90
2019-02-17T17:10:34.694Z,11.88
2019-02-17T17:13:01.912Z,11.84
2019-02-17T17:15:29.129Z,11.80
2019-02-17T17:17:56.390Z,11.80
2019-02-17T17:20:23.740Z,11.77
2019-02-17T17:22:51.034Z,11.77
2019-02-17T17:25:18.461Z,11.77
2019-02-17T17:27:46.205Z,11.76
2019-02-17T17:30:13.705Z,11.75
2019-02-17T17:32:41.014Z,11.73
2019-02-17T17:35:08.798Z,11.71
2019-02-17T17:37:38.818Z,11.62
2019-02-17T17:40:08.024Z,11.46
2019-02-17T17:42:35.277Z,11.38
2019-02-17T17:45:02.670Z,11.28
2019-02-17T17:47:29.928Z,11.22
2019-02-17T17:49:57.222Z,11.17
2019-02-17T17:52:24.521Z,11.11
2019-02-17T17:54:52.171Z,11.07
2019-02-17T17:57:19.462Z,10.99
2019-02-17T17:59:46.773Z,10.96
2019-02-17T18:02:14.031Z,10.89
2019-02-17T18:04:41.305Z,10.83
2019-02-17T18:07:08.628Z,10.74
2019-02-17T18:09:35.873Z,10.69
2019-02-17T18:12:03.143Z,10.65
2019-02-17T18:14:30.389Z,10.58
2019-02-17T18:16:57.607Z,10.58
2019-02-17T18:19:24.900Z,10.56
2019-02-17T18:21:52.408Z,10.51
2019-02-17T18:24:19.651Z,10.50
2019-02-17T18:26:47.216Z,10.47
2019-02-17T18:29:14.450Z,10.50
2019-02-17T18:31:41.701Z,10.50
2019-02-17T18:34:08.958Z,10.49
2019-02-17T18:36:36.220Z,10.49
2019-02-17T18:39:05.421Z,10.49
2019-02-17T18:41:32.664Z,10.49
2019-02-17T18:44:01.554Z,10.47
2019-02-17T18:46:28.781Z,10.44
2019-02-17T18:48:56.051Z,10.38
2019-02-17T18:51:23.307Z,10.30
2019-02-17T18:53:50.583Z,10.19
2019-02-17T18:56:17.797Z,10.17
2019-02-17T18:58:45.025Z,10.09
2019-02-17T19:01:12.301Z,9.99
2019-02-17T19:03:39.613Z,9.80
2019-02-17T19:06:06.835Z,9.80
2019-02-17T19:08:34.094Z,9.74
2019-02-17T19:11:01.396Z,9.73
2019-02-17T19:13:28.626Z,9.73
2019-02-17T19:15:55.853Z,9.73
2019-02-17T19:18:23.091Z,9.74
2019-02-17T19:20:50.343Z,9.77
2019-02-17T19:23:17.593Z,9.77
2019-02-17T19:25:44.836Z,9.76
2019-02-17T19:28:12.064Z,9.74
2019-02-17T19:30:39.362Z,9.71
2019-02-17T19:33:06.575Z,9.67
2019-02-17T19:35:41.560Z,9.66
2019-02-17T19:38:02.978Z,9.56
2019-02-17T19:40:30.207Z,9.56
2019-02-17T19:42:57.483Z,9.45
2019-02-17T19:45:24.697Z,9.45
2019-02-17T19:47:51.954Z,9.38
2019-02-17T19:50:19.214Z,9.38
2019-02-17T19:52:46.443Z,9.37
2019-02-17T19:55:13.807Z,9.34
2019-02-17T19:57:41.165Z,9.26
2019-02-17T20:00:10.717Z,9.28
2019-02-17T20:03:03.736Z,9.22
2019-02-17T20:05:35.243Z,9.19
2019-02-17T20:08:02.538Z,9.19
2019-02-17T20:10:29.789Z,9.19
2019-02-17T20:12:57.025Z,9.16
2019-02-17T20:15:26.928Z,9.16
2019-02-17T20:17:54.173Z,9.17
2019-02-17T20:20:21.413Z,9.15
2019-02-17T20:22:48.636Z,9.12
2019-02-17T20:25:15.887Z,9.16
2019-02-17T20:27:43.104Z,9.08
2019-02-17T20:30:10.496Z,9.14
2019-02-17T20:32:37.751Z,9.09
2019-02-17T20:35:05.117Z,9.09
2019-02-17T20:37:32.367Z,9.07
2019-02-17T20:39:59.580Z,9.02
2019-02-17T20:42:26.876Z,8.93
2019-02-17T20:44:54.125Z,8.91
2019-02-17T20:47:21.445Z,8.91
2019-02-17T20:49:48.743Z,8.88
2019-02-17T20:52:15.975Z,8.85
2019-02-17T20:54:43.208Z,8.79
2019-02-17T20:57:10.511Z,8.72
2019-02-17T20:59:37.749Z,8.72
2019-02-17T21:02:05.118Z,8.71
2019-02-17T21:04:32.676Z,8.62
2019-02-17T21:06:59.953Z,8.62
2019-02-17T21:09:27.249Z,8.62
2019-02-17T21:11:54.478Z,8.60
2019-02-17T21:14:21.772Z,8.54
2019-02-17T21:16:48.995Z,8.51
2019-02-17T21:19:16.216Z,8.41
2019-02-17T21:21:43.483Z,8.41
2019-02-17T21:24:12.462Z,8.42
2019-02-17T21:26:39.677Z,8.44
2019-02-17T21:29:06.951Z,8.47
2019-02-17T21:31:34.199Z,8.46
2019-02-17T21:34:01.439Z,8.46
2019-02-17T21:36:28.660Z,8.47
2019-02-17T21:38:55.911Z,8.47
2019-02-17T21:41:23.157Z,8.52
2019-02-17T21:43:50.356Z,8.52
2019-02-17T21:46:17.627Z,8.51
2019-02-17T21:48:45.241Z,8.44
2019-02-17T21:51:12.457Z,8.46
2019-02-17T21:53:39.712Z,8.40
2019-02-17T21:56:06.932Z,8.40
2019-02-17T21:58:34.150Z,8.37
2019-02-17T22:01:03.247Z,8.34
2019-02-17T22:03:30.683Z,8.34
2019-02-17T22:05:57.941Z,8.24
2019-02-17T22:08:25.318Z,8.21
2019-02-17T22:10:52.688Z,8.21
2019-02-17T22:13:19.942Z,8.23
2019-02-17T22:15:47.180Z,8.22
2019-02-17T22:18:14.392Z,8.22
2019-02-17T22:20:41.657Z,8.18
2019-02-17T22:23:08.878Z,8.20
2019-02-17T22:25:36.121Z,8.20
2019-02-17T22:28:03.809Z,8.24
2019-02-17T22:30:31.024Z,8.23
2019-02-17T22:32:58.230Z,8.23
2019-02-17T22:35:25.524Z,8.23
2019-02-17T22:37:52.781Z,8.23
2019-02-17T22:40:19.988Z,8.21
2019-02-17T22:42:47.240Z,8.19
2019-02-17T22:45:14.494Z,8.17
2019-02-17T22:47:41.710Z,8.15
2019-02-17T22:50:09.070Z,8.13
2019-02-17T22:52:36.314Z,8.12
2019-02-17T22:55:04.110Z,8.12
2019-02-17T22:57:31.352Z,8.08
2019-02-17T22:59:58.561Z,8.08
2019-02-17T23:02:25.873Z,8.07
2019-02-17T23:04:53.632Z,8.05
2019-02-17T23:07:20.975Z,8.02
2019-02-17T23:09:48.188Z,7.98
2019-02-17T23:12:15.509Z,7.86
2019-02-17T23:14:42.727Z,7.86
2019-02-17T23:17:09.980Z,7.78
2019-02-17T23:19:37.198Z,7.76
2019-02-17T23:22:04.528Z,7.69
2019-02-17T23:24:31.792Z,7.69
2019-02-17T23:26:59.049Z,7.72
2019-02-17T23:29:26.352Z,7.68
2019-02-17T23:31:53.592Z,7.66
2019-02-17T23:34:20.833Z,7.64
2019-02-17T23:36:48.099Z,7.63
2019-02-17T23:39:15.337Z,7.62
2019-02-17T23:41:42.557Z,7.61
2019-02-17T23:44:09.804Z,7.62
2019-02-17T23:46:37.012Z,7.63
2019-02-17T23:49:04.285Z,7.61
2019-02-17T23:51:31.503Z,7.63
2019-02-17T23:53:58.764Z,7.62
2019-02-17T23:56:25.983Z,7.61
2019-02-17T23:58:53.210Z,7.57
